Time;durP1;ratioP1;P1;durP2;ratioP2;P2;SDS_P1;SDS_P2;PMS_P1;PMS_P2;Temp;Humidity;BMP_temperature;BMP_pressure;BME280_temperature;BME280_humidity;BME280_pressure;Samples;Min_cycle;Max_cycle;Signal;HPM_P1;HPM_P2
2022/01/07 00:02:01;;;;;;;18.80;8.55;;;;;;;5.18;61.73;101257.69;5169034;28;20798;-44
2022/01/07 00:04:36;;;;;;;18.00;8.73;;;;;;;5.15;61.91;101257.91;5169118;28;20540;-45
2022/01/07 00:07:09;;;;;;;19.20;9.48;;;;;;;5.16;61.87;101251.72;5161634;28;20504;-45
2022/01/07 00:09:41;;;;;;;14.80;9.73;;;;;;;5.16;62.11;101249.09;5170531;28;20842;-44
2022/01/07 00:12:15;;;;;;;15.95;8.65;;;;;;;5.13;62.08;101244.06;5170712;28;20774;-44
2022/01/07 00:14:47;;;;;;;17.27;9.65;;;;;;;5.12;62.14;101242.41;5162360;28;20431;-45
2022/01/07 00:17:20;;;;;;;17.70;10.13;;;;;;;5.11;62.11;101238.09;5165790;28;21254;-47
2022/01/07 00:19:53;;;;;;;22.05;9.10;;;;;;;5.08;62.29;101226.91;5172492;28;20447;-44
2022/01/07 00:22:26;;;;;;;18.38;8.70;;;;;;;5.05;62.25;101216.66;5172623;28;20415;-45
2022/01/07 00:24:58;;;;;;;15.93;9.53;;;;;;;5.05;62.46;101221.88;5158309;28;20546;-44
2022/01/07 00:27:30;;;;;;;13.00;9.00;;;;;;;5.03;62.46;101218.53;5169372;28;20415;-45
2022/01/07 00:30:04;;;;;;;20.60;8.80;;;;;;;5.00;62.55;101210.88;5175348;28;20423;-45
2022/01/07 00:32:37;;;;;;;16.83;9.00;;;;;;;4.96;62.65;101201.56;5161384;28;20416;-45
2022/01/07 00:35:12;;;;;;;18.92;9.18;;;;;;;4.95;62.54;101215.56;5166085;28;20419;-44
2022/01/07 00:37:46;;;;;;;17.50;9.13;;;;;;;4.96;62.79;101206.81;5167812;28;20419;-44
2022/01/07 00:40:22;;;;;;;20.42;10.20;;;;;;;4.93;62.71;101199.16;5171778;28;20425;-45
2022/01/07 00:42:55;;;;;;;16.85;8.90;;;;;;;4.90;62.89;101201.97;5177803;28;20494;-43
2022/01/07 00:45:28;;;;;;;17.13;9.10;;;;;;;4.91;62.86;101187.94;5159055;28;20463;-44
2022/01/07 00:48:00;;;;;;;22.43;10.40;;;;;;;4.91;62.88;101190.56;5168080;28;20476;-50
2022/01/07 00:50:34;;;;;;;17.42;10.35;;;;;;;4.94;62.84;101189.53;5177821;28;20426;-44
2022/01/07 00:53:07;;;;;;;20.08;9.77;;;;;;;4.93;63.16;101186.06;5169755;28;20423;-44
2022/01/07 00:55:39;;;;;;;19.63;10.38;;;;;;;4.90;63.04;101167.97;5172650;28;20426;-44
2022/01/07 00:58:12;;;;;;;18.48;10.50;;;;;;;4.88;63.05;101167.22;5170558;28;20748;-45
2022/01/07 01:00:45;;;;;;;20.40;9.55;;;;;;;4.90;63.17;101170.56;5176459;28;20908;-46
2022/01/07 01:03:17;;;;;;;21.63;9.57;;;;;;;4.84;63.25;101165.75;5173293;28;20419;-46
2022/01/07 01:05:51;;;;;;;17.65;9.07;;;;;;;4.89;63.50;101181.97;5168945;28;20423;-46
2022/01/07 01:08:23;;;;;;;15.70;9.18;;;;;;;4.88;63.19;101161.16;5174840;28;20431;-44
2022/01/07 01:10:56;;;;;;;17.63;8.93;;;;;;;4.87;63.39;101154.25;5158376;28;21502;-44
2022/01/07 01:13:31;;;;;;;16.63;9.13;;;;;;;4.75;63.63;101135.00;5157437;28;20413;-44
2022/01/07 01:16:04;;;;;;;23.85;9.07;;;;;;;4.87;63.67;101149.00;5172272;28;20426;-44
2022/01/07 01:18:36;;;;;;;19.02;9.98;;;;;;;4.88;63.56;101151.50;5173581;28;20407;-48
2022/01/07 01:21:10;;;;;;;19.63;9.68;;;;;;;4.88;63.58;101167.22;5179294;28;20420;-44
2022/01/07 01:23:45;;;;;;;24.17;9.57;;;;;;;4.87;63.59;101142.00;5174041;28;20422;-46
2022/01/07 01:26:18;;;;;;;20.75;9.48;;;;;;;4.90;63.67;101133.94;5166799;28;20932;-48
2022/01/07 01:28:50;;;;;;;16.63;9.95;;;;;;;4.90;63.93;101133.94;5160956;28;20480;-43
2022/01/07 01:31:23;;;;;;;22.05;9.02;;;;;;;4.90;63.94;101133.94;5173263;28;20425;-45
2022/01/07 01:33:55;;;;;;;20.55;9.13;;;;;;;4.92;64.02;101125.97;5168081;28;20764;-43
2022/01/07 01:36:29;;;;;;;21.98;10.10;;;;;;;4.95;64.01;101126.59;5165298;28;20416;-43
2022/01/07 01:39:01;;;;;;;20.92;9.60;;;;;;;4.98;63.89;101115.91;5172677;28;20496;-43
2022/01/07 01:41:34;;;;;;;19.27;10.40;;;;;;;5.01;63.93;101104.38;5176261;28;20427;-44
2022/01/07 01:44:07;;;;;;;26.92;10.77;;;;;;;5.01;63.92;101102.59;5161963;28;20867;-45
2022/01/07 01:46:39;;;;;;;17.95;9.63;;;;;;;5.05;63.88;101103.25;5169485;28;20885;-47
2022/01/07 01:49:12;;;;;;;18.27;8.95;;;;;;;5.07;64.08;101104.78;5164996;28;20429;-43
2022/01/07 01:51:46;;;;;;;24.73;11.13;;;;;;;5.07;64.10;101104.78;5171110;28;20864;-44
2022/01/07 01:54:18;;;;;;;16.38;8.82;;;;;;;5.08;64.05;101114.34;5169225;28;20439;-43
2022/01/07 01:56:51;;;;;;;18.35;9.38;;;;;;;5.07;64.20;101112.63;5172722;28;20657;-47
2022/01/07 01:59:28;;;;;;;24.63;10.07;;;;;;;5.06;64.20;101112.75;5163439;28;20436;-44
2022/01/07 02:02:00;;;;;;;14.05;9.15;;;;;;;5.06;64.38;101094.44;5171734;28;20766;-45
2022/01/07 02:04:33;;;;;;;19.23;9.93;;;;;;;5.08;64.45;101096.00;5166509;28;20432;-45
2022/01/07 02:07:08;;;;;;;15.65;9.65;;;;;;;5.09;64.50;101097.66;5158294;28;20417;-52
2022/01/07 02:09:40;;;;;;;16.50;9.95;;;;;;;5.08;64.64;101096.00;5168242;28;21019;-44
2022/01/07 02:12:13;;;;;;;18.73;10.65;;;;;;;5.09;64.72;101092.44;5167482;28;20422;-44
2022/01/07 02:14:52;;;;;;;17.73;9.93;;;;;;;5.12;64.50;101070.44;5160327;28;20810;-44
2022/01/07 02:17:26;;;;;;;18.03;10.73;;;;;;;5.16;64.56;101071.06;5153081;28;20912;-48
2022/01/07 02:20:00;;;;;;;15.00;9.55;;;;;;;5.14;64.75;101062.47;5170611;28;20885;-43
2022/01/07 02:22:32;;;;;;;17.48;9.48;;;;;;;5.15;64.86;101064.16;5157859;28;20484;-43
2022/01/07 02:25:06;;;;;;;18.52;9.68;;;;;;;5.17;64.62;101063.13;5172533;28;20427;-47
2022/01/07 02:27:40;;;;;;;21.83;10.05;;;;;;;5.21;64.79;101059.31;5165540;28;20410;-45
2022/01/07 02:30:16;;;;;;;27.33;11.68;;;;;;;5.22;64.74;101045.28;5166288;28;20437;-43
2022/01/07 02:32:51;;;;;;;18.35;9.63;;;;;;;5.24;64.75;101058.28;5158896;28;20417;-43
2022/01/07 02:35:31;;;;;;;22.90;11.25;;;;;;;5.26;64.72;101035.41;5157270;28;20439;-49
2022/01/07 02:38:04;;;;;;;20.27;12.30;;;;;;;5.28;64.68;101038.75;5159161;28;20884;-45
2022/01/07 02:40:36;;;;;;;24.67;11.40;;;;;;;5.27;64.71;101040.56;5165194;28;20436;-43
2022/01/07 02:43:09;;;;;;;19.77;11.90;;;;;;;5.29;64.83;101024.72;5156261;28;20856;-49
2022/01/07 02:45:41;;;;;;;20.27;12.35;;;;;;;5.33;64.80;101026.19;5169533;28;20785;-43
2022/01/07 02:48:14;;;;;;;20.27;11.33;;;;;;;5.36;64.89;101025.09;5179577;28;20418;-44
2022/01/07 02:50:48;;;;;;;18.67;11.93;;;;;;;5.37;64.73;101022.38;5170971;28;20983;-43
2022/01/07 02:53:20;;;;;;;19.60;12.03;;;;;;;5.30;64.99;101015.94;5174678;28;20460;-43
2022/01/07 02:55:53;;;;;;;21.75;11.25;;;;;;;5.38;64.84;101029.28;5179454;28;20422;-47
2022/01/07 02:58:25;;;;;;;17.77;11.65;;;;;;;5.40;64.88;101022.16;5178760;28;21078;-44
2022/01/07 03:00:57;;;;;;;21.08;12.05;;;;;;;5.43;64.93;101028.97;5171579;28;20409;-43
2022/01/07 03:03:30;;;;;;;20.77;12.85;;;;;;;5.41;64.95;101023.81;5162866;28;20900;-50
2022/01/07 03:06:04;;;;;;;22.30;12.15;;;;;;;5.45;65.06;101014.81;5175090;28;20415;-46
2022/01/07 03:08:36;;;;;;;17.80;11.25;;;;;;;5.48;65.00;101017.22;5164280;28;20421;-45
2022/01/07 03:11:08;;;;;;;20.42;12.30;;;;;;;5.51;65.13;101011.75;5174657;28;20906;-44
2022/01/07 03:13:41;;;;;;;17.48;9.27;;;;;;;5.51;65.19;101013.50;5170910;28;20413;-45
2022/01/07 03:16:14;;;;;;;12.85;9.05;;;;;;;5.55;65.21;101004.50;5177905;28;20425;-44
2022/01/07 03:18:46;;;;;;;15.65;10.52;;;;;;;5.59;65.04;100995.44;5165709;28;20459;-46
2022/01/07 03:21:20;;;;;;;17.67;10.40;;;;;;;5.59;65.14;100984.97;5175772;28;20430;-45
2022/01/07 03:23:52;;;;;;;12.43;10.23;;;;;;;5.59;65.19;100990.22;5168100;28;20433;-44
2022/01/07 03:26:25;;;;;;;13.43;10.05;;;;;;;5.54;65.46;100987.94;5170726;28;20493;-44
2022/01/07 03:28:57;;;;;;;13.00;9.80;;;;;;;5.55;65.43;100980.91;5173673;28;20425;-43
2022/01/07 03:31:29;;;;;;;14.20;9.45;;;;;;;5.58;65.37;100974.63;5170877;28;20425;-45
2022/01/07 03:34:02;;;;;;;14.73;9.60;;;;;;;5.60;65.31;100967.47;5177419;28;20739;-43
2022/01/07 03:36:35;;;;;;;14.13;10.10;;;;;;;5.62;65.28;100973.44;5166929;28;20400;-43
2022/01/07 03:39:09;;;;;;;16.75;10.02;;;;;;;5.38;65.38;100929.75;5155697;28;20432;-43
2022/01/07 03:41:41;;;;;;;13.63;10.83;;;;;;;5.63;65.58;100969.84;5166129;28;20420;-43
2022/01/07 03:44:14;;;;;;;16.35;12.10;;;;;;;5.60;65.53;100956.97;5173618;28;20440;-45
2022/01/07 03:46:46;;;;;;;14.82;10.65;;;;;;;5.61;65.46;100958.66;5182613;28;20425;-43
2022/01/07 03:49:18;;;;;;;17.20;12.40;;;;;;;5.61;65.54;100950.81;5164637;28;20415;-45
2022/01/07 03:51:52;;;;;;;19.10;12.23;;;;;;;5.57;65.63;100923.97;5172752;28;20425;-43
2022/01/07 03:54:24;;;;;;;16.60;13.32;;;;;;;5.64;65.53;100930.44;5168822;28;20406;-43
2022/01/07 03:56:57;;;;;;;13.50;9.93;;;;;;;5.67;65.77;100934.63;5172123;28;20488;-55
2022/01/07 03:59:30;;;;;;;22.52;13.55;;;;;;;5.70;65.66;100939.63;5156505;28;20431;-43
2022/01/07 04:02:02;;;;;;;18.02;11.93;;;;;;;5.70;65.61;100931.78;5174308;28;20446;-45
2022/01/07 04:04:35;;;;;;;22.52;12.90;;;;;;;5.71;65.82;100928.19;5172363;28;20408;-48
2022/01/07 04:07:08;;;;;;;20.25;11.80;;;;;;;5.76;65.50;100923.41;5172635;28;20447;-44
2022/01/07 04:09:41;;;;;;;24.52;14.30;;;;;;;5.82;65.45;100925.56;5168139;28;20852;-43
2022/01/07 04:12:13;;;;;;;22.40;13.25;;;;;;;5.83;65.56;100924.63;5173798;28;20439;-45
2022/01/07 04:14:47;;;;;;;19.23;13.80;;;;;;;5.83;65.70;100919.41;5169631;28;20432;-45
2022/01/07 04:17:20;;;;;;;21.33;13.25;;;;;;;5.63;65.74;100886.00;5165235;28;20871;-45
2022/01/07 04:19:52;;;;;;;17.83;13.13;;;;;;;5.84;65.68;100915.81;5168492;28;20459;-49
2022/01/07 04:22:26;;;;;;;17.77;14.00;;;;;;;5.86;65.63;100913.94;5175018;28;20752;-48
2022/01/07 04:24:58;;;;;;;14.77;12.35;;;;;;;5.88;65.88;100906.75;5177311;28;20905;-43
2022/01/07 04:27:31;;;;;;;16.98;12.50;;;;;;;5.88;65.76;100895.44;5167574;28;20408;-49
2022/01/07 04:30:04;;;;;;;16.20;12.53;;;;;;;5.88;65.67;100896.28;5170592;28;20439;-44
2022/01/07 04:32:37;;;;;;;17.75;12.00;;;;;;;5.88;65.66;100896.28;5158749;28;20411;-43
2022/01/07 04:35:11;;;;;;;17.25;13.27;;;;;;;5.91;65.82;100905.69;5161953;28;20422;-44
2022/01/07 04:37:45;;;;;;;17.75;11.50;;;;;;;5.97;65.69;100911.31;5177463;28;20421;-46
2022/01/07 04:40:20;;;;;;;22.73;14.00;;;;;;;5.99;65.69;100909.44;5169613;28;20780;-45
2022/01/07 04:42:52;;;;;;;18.02;12.52;;;;;;;5.99;65.69;100906.81;5168617;28;20515;-48
2022/01/07 04:45:25;;;;;;;19.40;12.60;;;;;;;6.02;65.71;100912.78;5169238;28;20547;-43
2022/01/07 04:47:58;;;;;;;16.17;10.90;;;;;;;6.02;65.70;100913.59;5164720;28;20892;-43
2022/01/07 04:50:31;;;;;;;14.65;11.45;;;;;;;6.02;65.88;100913.59;5170752;28;20409;-44
2022/01/07 04:53:05;;;;;;;17.30;11.60;;;;;;;5.99;65.75;100908.59;5179210;28;20409;-42
2022/01/07 04:55:38;;;;;;;18.65;12.75;;;;;;;6.05;65.85;100915.16;5157690;28;20412;-45
2022/01/07 04:58:48;;;;;;;15.73;12.15;;;;;;;6.07;65.83;100921.09;5157721;28;20483;-43
2022/01/07 05:01:20;;;;;;;15.82;11.07;;;;;;;6.06;65.80;100912.41;5171635;28;20511;-43
2022/01/07 05:03:52;;;;;;;17.40;12.98;;;;;;;6.05;65.86;100915.16;5170073;28;20424;-43
2022/01/07 05:06:44;;;;;;;18.60;13.65;;;;;;;6.08;65.80;100912.31;5164326;28;20876;-47
2022/01/07 05:09:19;;;;;;;24.40;14.35;;;;;;;6.13;65.92;100915.38;5171999;28;20421;-45
2022/01/07 05:11:53;;;;;;;21.92;12.38;;;;;;;6.17;65.82;100906.34;5165436;28;20432;-43
2022/01/07 05:14:26;;;;;;;20.85;13.48;;;;;;;6.19;65.69;100921.00;5178367;28;20425;-44
2022/01/07 05:16:58;;;;;;;21.73;12.93;;;;;;;6.19;65.70;100920.16;5170557;28;20404;-44
2022/01/07 05:19:30;;;;;;;23.20;12.98;;;;;;;6.15;65.75;100916.09;5167939;28;20442;-49
2022/01/07 05:22:03;;;;;;;18.75;13.43;;;;;;;6.13;65.94;100925.88;5165120;28;20766;-44
2022/01/07 05:24:37;;;;;;;20.77;14.15;;;;;;;6.07;65.78;100915.84;5166919;28;20431;-49
2022/01/07 05:27:10;;;;;;;19.45;13.07;;;;;;;5.83;65.83;100879.25;5174637;28;20427;-45
2022/01/07 05:29:42;;;;;;;29.38;13.20;;;;;;;6.07;65.74;100915.84;5176595;28;21035;-43
2022/01/07 05:32:15;;;;;;;21.17;14.15;;;;;;;6.05;65.88;100915.16;5155914;28;20847;-46
2022/01/07 05:34:47;;;;;;;24.10;12.25;;;;;;;6.09;65.89;100911.34;5158910;28;20423;-44
2022/01/07 05:37:19;;;;;;;24.48;13.55;;;;;;;6.12;65.83;100918.97;5172399;28;20780;-48
2022/01/07 05:39:55;;;;;;;19.77;13.15;;;;;;;6.15;65.84;100913.50;5180589;28;20417;-46
2022/01/07 05:42:28;;;;;;;19.50;12.68;;;;;;;6.15;65.96;100916.09;5174750;28;20467;-43
2022/01/07 05:45:00;;;;;;;22.08;12.73;;;;;;;6.14;66.10;100914.44;5172876;28;20417;-48
2022/01/07 05:47:33;;;;;;;23.77;12.13;;;;;;;6.13;66.05;100910.13;5186927;28;20418;-44
2022/01/07 05:50:07;;;;;;;20.60;11.20;;;;;;;6.11;66.05;100906.81;5170846;28;20411;-47
2022/01/07 05:52:39;;;;;;;22.88;12.95;;;;;;;6.17;65.85;100901.09;5170057;28;20926;-44
2022/01/07 05:55:13;;;;;;;26.50;13.32;;;;;;;6.21;65.95;100898.09;5181472;28;20407;-46
2022/01/07 05:57:45;;;;;;;26.08;13.13;;;;;;;6.25;66.00;100898.69;5169411;28;20423;-43
2022/01/07 06:00:18;;;;;;;29.88;13.05;;;;;;;6.29;65.78;100905.38;5175726;28;20419;-44
2022/01/07 06:02:50;;;;;;;22.73;13.65;;;;;;;6.30;65.93;100906.22;5178565;28;20430;-44
2022/01/07 06:05:23;;;;;;;19.05;13.35;;;;;;;6.31;65.94;100900.00;5173998;28;20527;-47
2022/01/07 06:07:55;;;;;;;22.83;13.85;;;;;;;6.31;65.76;100908.69;5174223;28;20853;-43
2022/01/07 06:10:29;;;;;;;24.80;13.82;;;;;;;6.34;65.83;100903.22;5165304;28;20488;-44
2022/01/07 06:13:01;;;;;;;26.48;14.73;;;;;;;6.37;65.96;100900.34;5165385;28;20399;-44
2022/01/07 06:15:34;;;;;;;26.25;13.93;;;;;;;6.40;65.88;100907.16;5175579;28;20426;-48
2022/01/07 06:18:07;;;;;;;23.85;13.93;;;;;;;6.37;65.87;100902.97;5168843;28;20415;-43
2022/01/07 06:20:39;;;;;;;26.15;14.55;;;;;;;6.36;65.88;100901.31;5171997;28;20432;-47
2022/01/07 06:23:11;;;;;;;27.17;14.35;;;;;;;6.40;65.67;100907.16;5182731;28;20414;-45
2022/01/07 06:25:48;;;;;;;33.03;14.97;;;;;;;6.42;65.88;100910.50;5184484;28;20486;-48
2022/01/07 06:28:21;;;;;;;22.98;15.93;;;;;;;6.42;65.88;100907.88;5167125;28;20764;-46
2022/01/07 06:30:54;;;;;;;27.30;15.32;;;;;;;6.46;65.91;100912.75;5164625;28;20545;-46
2022/01/07 06:33:26;;;;;;;29.70;15.90;;;;;;;6.45;66.01;100924.22;5167927;28;20466;-47
2022/01/07 06:35:59;;;;;;;33.35;15.80;;;;;;;6.45;65.90;100920.75;5171652;28;20419;-44
2022/01/07 06:38:31;;;;;;;33.85;15.32;;;;;;;6.46;65.95;100915.38;5172285;28;21176;-48
2022/01/07 06:41:05;;;;;;;30.98;16.25;;;;;;;6.51;65.89;100914.19;5173197;28;20407;-43
2022/01/07 06:43:38;;;;;;;35.33;16.33;;;;;;;6.51;66.04;100904.53;5161017;28;20440;-44
2022/01/07 06:46:11;;;;;;;38.22;15.50;;;;;;;6.53;66.04;100899.13;5175496;28;20916;-45
2022/01/07 06:48:44;;;;;;;31.93;15.37;;;;;;;6.49;66.00;100895.94;5161181;28;20487;-44
2022/01/07 06:51:17;;;;;;;37.42;16.17;;;;;;;6.51;65.95;100903.69;5177749;28;20427;-48
2022/01/07 06:53:49;;;;;;;34.67;16.90;;;;;;;6.46;66.05;100897.00;5177825;28;20432;-44
2022/01/07 06:56:23;;;;;;;36.45;15.85;;;;;;;6.45;66.05;100905.00;5176104;28;20420;-44
2022/01/07 06:58:55;;;;;;;40.50;17.80;;;;;;;6.45;66.04;100905.00;5170210;28;21573;-50
2022/01/07 07:01:28;;;;;;;37.17;19.50;;;;;;;6.44;66.10;100906.81;5163457;28;20419;-44
2022/01/07 07:04:00;;;;;;;40.58;19.05;;;;;;;6.42;66.12;100898.22;5182019;28;20767;-44
2022/01/07 07:06:32;;;;;;;34.57;19.57;;;;;;;6.43;66.24;100902.50;5165177;28;20499;-44
2022/01/07 07:09:05;;;;;;;43.78;21.50;;;;;;;6.43;66.13;100897.25;5169773;28;20879;-45
2022/01/07 07:11:39;;;;;;;35.28;20.20;;;;;;;6.46;66.13;100890.94;5165664;28;20753;-44
2022/01/07 07:14:12;;;;;;;42.15;22.25;;;;;;;6.53;66.10;100896.50;5184003;28;20431;-43
2022/01/07 07:16:45;;;;;;;44.95;21.25;;;;;;;6.52;66.29;100894.84;5183017;28;20418;-44
2022/01/07 07:19:17;;;;;;;42.20;20.63;;;;;;;6.55;66.17;100894.63;5179313;28;20427;-45
2022/01/07 07:21:49;;;;;;;29.87;20.60;;;;;;;6.55;66.24;100899.88;5173213;28;20429;-45
2022/01/07 07:24:24;;;;;;;36.10;21.80;;;;;;;6.57;66.40;100897.97;5170365;28;21004;-46
2022/01/07 07:26:58;;;;;;;43.28;22.52;;;;;;;6.54;66.28;100898.22;5165917;28;20422;-45
2022/01/07 07:29:30;;;;;;;35.47;21.25;;;;;;;6.51;66.35;100908.94;5171036;28;20789;-45
2022/01/07 07:32:07;;;;;;;37.50;22.80;;;;;;;6.47;66.42;100906.56;5180561;28;20523;-47
2022/01/07 07:34:57;;;;;;;37.80;23.90;;;;;;;6.49;66.49;100901.19;5162639;28;20524;-47
2022/01/07 07:37:30;;;;;;;44.83;25.35;;;;;;;6.53;66.73;100907.00;5176139;28;21277;-45
2022/01/07 07:40:02;;;;;;;39.50;20.95;;;;;;;6.54;66.58;100892.97;5175797;28;20428;-46
2022/01/07 07:42:36;;;;;;;44.33;27.00;;;;;;;6.51;66.59;100901.06;5166827;28;20429;-45
2022/01/07 07:45:12;;;;;;;42.90;26.20;;;;;;;6.57;66.72;100897.97;5179664;28;20531;-46
2022/01/07 07:47:44;;;;;;;39.72;23.58;;;;;;;6.59;66.67;100898.66;5178753;28;20418;-48
2022/01/07 07:50:17;;;;;;;40.80;24.23;;;;;;;6.55;66.70;100905.13;5169571;28;20417;-48
2022/01/07 07:52:49;;;;;;;41.25;24.20;;;;;;;6.54;66.89;100908.69;5173076;28;20422;-47
2022/01/07 07:55:21;;;;;;;40.40;23.92;;;;;;;6.51;66.97;100906.31;5186843;28;20417;-48
2022/01/07 07:57:55;;;;;;;36.08;21.20;;;;;;;6.49;66.87;100911.66;5173660;28;20427;-47
2022/01/07 08:00:28;;;;;;;37.22;24.38;;;;;;;6.47;67.02;100903.09;5166984;28;20748;-45
2022/01/07 08:03:00;;;;;;;38.25;22.00;;;;;;;6.50;66.96;100915.13;5184115;28;20419;-44
2022/01/07 08:05:32;;;;;;;35.20;21.23;;;;;;;6.50;66.85;100917.75;5175758;28;20416;-46
2022/01/07 08:08:06;;;;;;;38.13;21.07;;;;;;;6.46;66.99;100896.19;5158790;28;20450;-49
2022/01/07 08:10:45;;;;;;;38.13;20.65;;;;;;;6.58;66.79;100918.00;5180111;28;20409;-45
2022/01/07 08:13:30;;;;;;;23.73;16.10;;;;;;;6.59;66.73;100917.84;5169721;28;20575;-47
2022/01/07 08:16:04;;;;;;;34.28;16.35;;;;;;;6.63;66.79;100907.97;5163849;28;20428;-44
2022/01/07 08:18:40;;;;;;;41.17;18.65;;;;;;;6.68;66.65;100926.78;5161660;28;20797;-47
2022/01/07 08:21:13;;;;;;;27.97;15.17;;;;;;;6.74;66.66;100925.47;5158336;28;20886;-44
2022/01/07 08:23:46;;;;;;;35.45;15.95;;;;;;;6.76;66.57;100924.41;5174841;28;20773;-44
2022/01/07 08:26:20;;;;;;;32.13;14.18;;;;;;;6.79;66.42;100918.91;5155001;28;20905;-43
2022/01/07 08:28:57;;;;;;;21.58;8.27;;;;;;;6.77;66.48;100915.56;5167417;28;20435;-44
2022/01/07 08:37:09;;;;;;;19.73;7.00;;;;;;;6.61;66.81;100915.13;5168658;28;20428;-45
2022/01/07 08:39:41;;;;;;;20.93;8.13;;;;;;;6.57;66.94;100924.19;5176016;28;20502;-44
2022/01/07 08:42:13;;;;;;;22.65;9.75;;;;;;;6.56;66.96;100909.41;5169562;28;20943;-45
2022/01/07 08:44:47;;;;;;;20.88;10.15;;;;;;;6.59;67.04;100906.53;5174225;28;20461;-47
2022/01/07 08:47:21;;;;;;;23.05;12.00;;;;;;;6.64;66.72;100909.63;5167266;28;20535;-44
2022/01/07 08:49:55;;;;;;;21.33;11.30;;;;;;;6.68;66.89;100911.03;5172493;28;20417;-47
2022/01/07 08:52:27;;;;;;;26.65;12.38;;;;;;;6.69;66.60;100912.72;5160519;28;20429;-45
2022/01/07 08:54:59;;;;;;;25.55;12.50;;;;;;;6.68;66.86;100901.38;5162581;28;20417;-45
2022/01/07 08:57:32;;;;;;;31.02;12.93;;;;;;;6.66;66.97;100902.47;5171584;28;20435;-47
2022/01/07 09:00:08;;;;;;;31.00;13.32;;;;;;;6.68;67.05;100903.16;5165402;28;20432;-46
2022/01/07 09:02:40;;;;;;;36.08;13.65;;;;;;;6.67;66.96;100909.38;5154693;28;20884;-44
2022/01/07 09:05:12;;;;;;;28.10;13.23;;;;;;;6.69;66.87;100912.72;5174247;28;20453;-45
2022/01/07 09:07:45;;;;;;;34.13;13.43;;;;;;;6.70;66.97;100909.97;5168218;28;20428;-45
2022/01/07 09:10:17;;;;;;;26.85;12.15;;;;;;;6.73;66.85;100903.63;5163326;28;20437;-44
2022/01/07 09:12:49;;;;;;;24.95;12.77;;;;;;;6.73;67.09;100908.88;5167083;28;20421;-44
2022/01/07 09:15:23;;;;;;;29.80;12.00;;;;;;;6.72;66.96;100920.34;5168152;28;20523;-44
2022/01/07 09:17:55;;;;;;;28.85;11.10;;;;;;;6.73;67.03;100919.38;5169195;28;20660;-45
2022/01/07 09:20:28;;;;;;;25.08;11.07;;;;;;;6.74;67.00;100923.66;5177733;28;20753;-43
2022/01/07 09:23:00;;;;;;;24.00;11.23;;;;;;;6.75;67.10;100922.75;5171307;28;20496;-51
2022/01/07 09:25:33;;;;;;;27.77;9.75;;;;;;;6.75;67.07;100928.00;5167392;28;20424;-44
2022/01/07 09:28:07;;;;;;;24.98;9.30;;;;;;;6.71;67.25;100923.91;5163161;28;20424;-47
2022/01/07 09:30:40;;;;;;;31.98;10.30;;;;;;;6.69;67.24;100920.59;5168450;28;20442;-43
2022/01/07 09:33:13;;;;;;;20.33;8.98;;;;;;;6.69;67.14;100926.69;5164067;28;20439;-43
2022/01/07 09:35:45;;;;;;;25.63;8.23;;;;;;;6.74;67.10;100921.03;5154766;28;20429;-44
2022/01/07 09:38:18;;;;;;;29.63;8.77;;;;;;;6.75;67.09;100917.47;5161664;28;20792;-47
2022/01/07 09:40:51;;;;;;;26.02;9.27;;;;;;;6.77;67.11;100914.72;5176237;28;20572;-44
2022/01/07 09:43:25;;;;;;;23.92;6.90;;;;;;;6.76;67.05;100923.56;5163848;28;20961;-43
2022/01/07 09:45:59;;;;;;;28.45;7.07;;;;;;;6.64;67.12;100909.63;5168901;28;20550;-45
2022/01/07 09:48:31;;;;;;;17.38;4.82;;;;;;;6.69;67.19;100917.97;5160345;28;20535;-48
2022/01/07 09:51:04;;;;;;;21.70;5.53;;;;;;;6.68;67.16;100921.53;5161670;28;20428;-43
2022/01/07 09:53:36;;;;;;;19.23;5.32;;;;;;;6.62;67.28;100906.28;5151985;28;20410;-45
2022/01/07 09:56:08;;;;;;;21.83;4.85;;;;;;;6.54;67.18;100898.22;5161993;28;20437;-47
2022/01/07 09:58:41;;;;;;;16.95;4.57;;;;;;;6.61;67.05;100909.88;5159146;28;20425;-48
2022/01/07 10:01:17;;;;;;;20.70;4.93;;;;;;;6.63;67.13;100918.47;5176323;28;20798;-45
2022/01/07 10:03:50;;;;;;;21.65;5.10;;;;;;;6.64;66.90;100914.88;5157123;28;20567;-45
2022/01/07 10:06:25;;;;;;;13.63;4.60;;;;;;;6.65;66.89;100921.78;5165118;28;20419;-44
2022/01/07 10:09:02;;;;;;;21.10;5.43;;;;;;;6.61;67.03;100905.44;5160096;28;20429;-48
2022/01/07 10:11:34;;;;;;;19.63;5.07;;;;;;;6.75;66.92;100909.63;5177512;28;20956;-43
2022/01/07 10:14:19;;;;;;;16.88;5.45;;;;;;;6.84;66.76;100905.38;5166420;28;20429;-46
2022/01/07 10:16:56;;;;;;;22.10;5.90;;;;;;;7.00;66.84;100897.09;5156185;28;20421;-44
2022/01/07 10:19:31;;;;;;;20.93;5.70;;;;;;;7.13;66.69;100900.41;5159145;28;20847;-48
2022/01/07 10:22:06;;;;;;;25.27;5.97;;;;;;;7.21;66.69;100907.66;5170809;28;20415;-45
2022/01/07 10:24:57;;;;;;;15.60;5.75;;;;;;;7.22;66.49;100902.28;5172645;28;20521;-48
2022/01/07 10:27:37;;;;;;;22.65;6.97;;;;;;;7.17;66.55;100909.69;5161929;28;20413;-45
2022/01/07 10:30:12;;;;;;;23.60;7.45;;;;;;;7.12;66.47;100904.84;5174467;28;20422;-45
2022/01/07 10:32:46;;;;;;;21.85;7.50;;;;;;;7.10;66.56;100900.66;5155370;28;20424;-46
2022/01/07 10:35:21;;;;;;;20.65;7.90;;;;;;;6.96;66.41;100887.81;5167125;28;20508;-47
2022/01/07 10:37:57;;;;;;;30.48;8.65;;;;;;;7.04;66.41;100901.16;5167426;28;20439;-44
2022/01/07 10:40:33;;;;;;;21.00;7.72;;;;;;;7.07;66.40;100906.16;5170860;28;20433;-47
2022/01/07 10:43:15;;;;;;;23.95;8.23;;;;;;;7.13;66.19;100900.41;5158931;28;21002;-48
2022/01/07 10:45:52;;;;;;;26.38;8.40;;;;;;;7.16;66.25;100900.16;5167972;28;20443;-45
2022/01/07 10:48:39;;;;;;;20.85;7.63;;;;;;;7.17;66.14;100891.31;5161241;28;20925;-44
2022/01/07 10:51:14;;;;;;;23.70;7.40;;;;;;;7.21;66.13;100897.13;5164381;28;20528;-44
2022/01/07 10:53:52;;;;;;;24.90;6.80;;;;;;;7.28;66.23;100895.69;5168135;28;20442;-45
2022/01/07 10:56:33;;;;;;;19.02;6.53;;;;;;;7.38;66.05;100899.22;5170659;28;20449;-46
2022/01/07 10:59:07;;;;;;;25.47;5.93;;;;;;;7.47;66.13;100892.38;5163562;28;20501;-47
2022/01/07 11:01:44;;;;;;;22.63;5.90;;;;;;;7.54;66.03;100896.13;5163107;28;20919;-48
2022/01/07 11:04:19;;;;;;;23.83;6.90;;;;;;;7.37;65.91;100852.84;5174803;28;20560;-46
2022/01/07 11:06:52;;;;;;;18.88;5.05;;;;;;;7.66;65.88;100876.69;5165853;28;20439;-43
2022/01/07 11:09:25;;;;;;;28.00;5.80;;;;;;;7.81;65.84;100890.34;5167726;28;20436;-44
2022/01/07 11:12:02;;;;;;;20.67;6.33;;;;;;;7.94;65.71;100890.13;5166734;28;20418;-45
2022/01/07 11:14:36;;;;;;;28.98;5.95;;;;;;;8.04;65.52;100883.09;5161608;28;20432;-44
2022/01/07 11:17:11;;;;;;;27.73;5.90;;;;;;;8.10;65.50;100882.56;5162233;28;20486;-43
2022/01/07 11:19:45;;;;;;;20.38;4.80;;;;;;;7.84;65.42;100846.22;5164880;28;20444;-44
2022/01/07 11:22:19;;;;;;;16.50;4.67;;;;;;;8.15;65.56;100890.91;5167592;28;20791;-44
2022/01/07 11:25:07;;;;;;;20.83;4.47;;;;;;;8.14;65.27;100894.50;5168270;28;20428;-44
2022/01/07 11:27:51;;;;;;;18.98;4.60;;;;;;;8.11;65.55;100889.50;5167996;28;20415;-45
2022/01/07 11:30:28;;;;;;;21.23;5.17;;;;;;;8.12;65.35;100893.81;5173503;28;20433;-44
2022/01/07 11:33:15;;;;;;;20.00;4.83;;;;;;;8.17;65.31;100886.34;5171914;28;20416;-44
2022/01/07 11:35:49;;;;;;;14.67;4.80;;;;;;;8.20;65.13;100885.25;5170393;28;20455;-53
2022/01/07 11:38:42;;;;;;;17.33;4.75;;;;;;;8.20;65.14;100875.53;5176062;28;20415;-44
2022/01/07 11:41:36;;;;;;;14.95;4.53;;;;;;;8.19;64.94;100867.81;5166250;28;20976;-43
2022/01/07 11:44:13;;;;;;;16.70;4.50;;;;;;;7.91;64.95;100843.88;5154380;28;20485;-44
2022/01/07 11:46:46;;;;;;;12.63;3.72;;;;;;;8.11;64.69;100875.50;5168586;28;20419;-44
2022/01/07 11:49:35;;;;;;;16.95;4.10;;;;;;;8.03;64.64;100873.56;5167930;28;20424;-45
2022/01/07 11:52:33;;;;;;;17.30;4.50;;;;;;;8.07;64.56;100874.94;5170527;28;20486;-45
2022/01/07 11:55:26;;;;;;;17.73;4.47;;;;;;;8.04;64.43;100870.78;5169743;28;20516;-44
2022/01/07 11:58:03;;;;;;;19.40;4.72;;;;;;;7.93;64.26;100873.53;5173466;28;20418;-44